Time;durP1;ratioP1;P1;durP2;ratioP2;P2;SDS_P1;SDS_P2;PMS_P1;PMS_P2;Temp;Humidity;BMP_temperature;BMP_pressure;BME280_temperature;BME280_humidity;BME280_pressure;Samples;Min_cycle;Max_cycle;Signal;HPM_P1;HPM_P2
2023/09/10 00:01:47;;;;;;;22.57;18.87;;;;;;;;;;4917215;29;20189;-86
2023/09/10 00:04:51;;;;;;;22.27;18.70;;;;;;;;;;4906408;29;20697;-86
2023/09/10 00:07:55;;;;;;;20.13;17.80;;;;;;;;;;4917524;29;20653;-86
2023/09/10 00:10:59;;;;;;;23.97;18.63;;;;;;;;;;4917033;29;20658;-86
2023/09/10 00:14:03;;;;;;;20.20;18.10;;;;;;;;;;4906127;29;20231;-86
2023/09/10 00:17:08;;;;;;;21.40;17.07;;;;;;;;;;4916941;29;20258;-86
2023/09/10 00:20:12;;;;;;;19.03;16.83;;;;;;;;;;4917431;29;20566;-86
2023/09/10 00:23:15;;;;;;;18.47;16.47;;;;;;;;;;4905835;29;20235;-86
2023/09/10 00:26:19;;;;;;;19.17;17.03;;;;;;;;;;4906201;29;20563;-86
2023/09/10 00:29:24;;;;;;;16.27;14.60;;;;;;;;;;4916644;29;20196;-86
2023/09/10 00:32:28;;;;;;;26.07;15.27;;;;;;;;;;4906200;29;20231;-86
2023/09/10 00:35:33;;;;;;;18.90;16.00;;;;;;;;;;4917726;29;20192;-86
2023/09/10 00:38:37;;;;;;;20.63;15.40;;;;;;;;;;4895183;29;20661;-86
2023/09/10 00:41:41;;;;;;;17.20;15.00;;;;;;;;;;4916679;29;20196;-86
2023/09/10 00:44:45;;;;;;;17.23;14.73;;;;;;;;;;4905999;29;20219;-86
2023/09/10 00:47:50;;;;;;;17.70;15.80;;;;;;;;;;4906286;29;20199;-86
2023/09/10 00:50:54;;;;;;;18.00;16.10;;;;;;;;;;4905987;29;20196;-86
2023/09/10 00:53:59;;;;;;;16.33;14.63;;;;;;;;;;4916734;29;20224;-86
2023/09/10 00:57:04;;;;;;;16.57;14.87;;;;;;;;;;4916539;29;20559;-86
2023/09/10 01:00:09;;;;;;;19.60;15.23;;;;;;;;;;4905698;29;20196;-86
2023/09/10 01:03:14;;;;;;;17.23;15.30;;;;;;;;;;4905586;29;20227;-86
2023/09/10 01:06:21;;;;;;;17.20;15.37;;;;;;;;;;4905702;29;20196;-86
2023/09/10 01:09:25;;;;;;;16.80;15.00;;;;;;;;;;4916785;29;20196;-86
2023/09/10 01:12:55;;;;;;;15.60;14.10;;;;;;;;;;4905551;29;20235;-86
2023/09/10 01:16:12;;;;;;;21.60;15.27;;;;;;;;;;4916466;29;20184;-86
2023/09/10 01:19:35;;;;;;;16.73;15.03;;;;;;;;;;4905816;29;20188;-86
2023/09/10 01:23:13;;;;;;;17.73;15.93;;;;;;;;;;4897424;29;20382;-86
2023/09/10 01:26:17;;;;;;;16.90;15.07;;;;;;;;;;4919841;29;20200;-86
2023/09/10 01:29:21;;;;;;;18.40;16.27;;;;;;;;;;4898253;29;20192;-86
2023/09/10 01:32:30;;;;;;;17.70;15.83;;;;;;;;;;4909355;29;20228;-86
2023/09/10 01:35:44;;;;;;;17.13;14.93;;;;;;;;;;4898383;29;20189;-86
2023/09/10 01:39:07;;;;;;;18.40;15.90;;;;;;;;;;4920148;29;20188;-86
2023/09/10 01:42:12;;;;;;;17.73;15.93;;;;;;;;;;4919897;29;20201;-86
2023/09/10 01:45:18;;;;;;;17.60;15.77;;;;;;;;;;4909060;29;20224;-86
2023/09/10 01:48:26;;;;;;;18.43;15.43;;;;;;;;;;4920166;29;20192;-86
2023/09/10 01:51:30;;;;;;;18.07;16.27;;;;;;;;;;4919707;29;20196;-86
2023/09/10 01:54:34;;;;;;;17.80;15.50;;;;;;;;;;4908860;29;20184;-86
2023/09/10 01:57:38;;;;;;;16.87;15.03;;;;;;;;;;4908909;29;20188;-86
2023/09/10 02:00:44;;;;;;;16.93;15.23;;;;;;;;;;4908757;29;20188;-86
2023/09/10 02:03:49;;;;;;;18.40;16.40;;;;;;;;;;4908615;29;20236;-86
2023/09/10 02:06:52;;;;;;;18.90;15.97;;;;;;;;;;4898087;29;20192;-86
2023/09/10 02:09:58;;;;;;;17.00;15.30;;;;;;;;;;4908435;29;20196;-86
2023/09/10 02:13:03;;;;;;;17.50;15.80;;;;;;;;;;4919199;29;20224;-86
2023/09/10 02:16:08;;;;;;;20.53;16.00;;;;;;;;;;4908791;29;20184;-86
2023/09/10 02:19:12;;;;;;;17.27;15.47;;;;;;;;;;4908801;29;20200;-86
2023/09/10 02:22:16;;;;;;;21.97;15.83;;;;;;;;;;4920076;29;20211;-86
2023/09/10 02:25:20;;;;;;;17.80;16.03;;;;;;;;;;4908689;29;20220;-86
2023/09/10 02:28:25;;;;;;;17.00;15.30;;;;;;;;;;4918992;29;20192;-86
2023/09/10 02:31:29;;;;;;;18.73;16.20;;;;;;;;;;4908648;29;20196;-86
2023/09/10 02:34:33;;;;;;;19.27;16.07;;;;;;;;;;4908245;29;20188;-86
2023/09/10 02:37:37;;;;;;;19.13;15.60;;;;;;;;;;4908240;29;20564;-86
2023/09/10 02:40:42;;;;;;;17.93;15.30;;;;;;;;;;4918930;29;20258;-86
2023/09/10 02:43:46;;;;;;;18.17;16.23;;;;;;;;;;4907769;29;20247;-86
2023/09/10 02:46:52;;;;;;;17.33;15.43;;;;;;;;;;4897560;29;20192;-86
2023/09/10 02:49:57;;;;;;;18.23;16.33;;;;;;;;;;4908237;29;20551;-85
2023/09/10 02:53:01;;;;;;;18.97;17.03;;;;;;;;;;4919332;29;20231;-86
2023/09/10 02:56:05;;;;;;;20.23;17.97;;;;;;;;;;4918863;29;20211;-86
2023/09/10 02:59:20;;;;;;;21.47;19.17;;;;;;;;;;4896999;29;20196;-86
2023/09/10 03:02:24;;;;;;;20.13;18.00;;;;;;;;;;4918837;29;20231;-86
2023/09/10 03:05:32;;;;;;;21.30;19.03;;;;;;;;;;4907991;29;20216;-86
2023/09/10 03:08:37;;;;;;;20.43;18.33;;;;;;;;;;4918491;29;20192;-86
2023/09/10 03:11:42;;;;;;;21.50;19.30;;;;;;;;;;4918903;29;20199;-85
2023/09/10 03:14:47;;;;;;;21.93;19.60;;;;;;;;;;4896838;29;20215;-86
2023/09/10 03:17:51;;;;;;;20.57;18.40;;;;;;;;;;4896787;29;20192;-86
2023/09/10 03:20:56;;;;;;;19.93;17.93;;;;;;;;;;4907390;29;20196;-86
2023/09/10 03:24:00;;;;;;;21.50;19.30;;;;;;;;;;4907393;29;20606;-86
2023/09/10 03:27:05;;;;;;;19.93;17.83;;;;;;;;;;4896722;29;20192;-86
2023/09/10 03:30:10;;;;;;;20.17;17.83;;;;;;;;;;4896828;29;20212;-85
2023/09/10 03:33:14;;;;;;;25.17;19.10;;;;;;;;;;4907604;29;20721;-86
2023/09/10 03:36:18;;;;;;;104.17;21.40;;;;;;;;;;4907215;29;20184;-86
2023/09/10 03:39:22;;;;;;;79.77;20.33;;;;;;;;;;4918603;29;20191;-86
2023/09/10 03:42:26;;;;;;;51.70;20.37;;;;;;;;;;4907009;29;20227;-86
2023/09/10 03:45:30;;;;;;;45.33;19.30;;;;;;;;;;4917448;29;20227;-86
2023/09/10 03:48:34;;;;;;;37.17;19.07;;;;;;;;;;4907157;29;20550;-86
2023/09/10 03:51:40;;;;;;;30.73;17.50;;;;;;;;;;4907037;29;20658;-86
2023/09/10 03:54:44;;;;;;;26.17;17.67;;;;;;;;;;4896645;29;20192;-86
2023/09/10 03:57:48;;;;;;;24.20;17.33;;;;;;;;;;4895979;29;20200;-86
2023/09/10 04:00:52;;;;;;;21.73;17.93;;;;;;;;;;4907305;29;20646;-86
2023/09/10 04:03:56;;;;;;;24.07;16.80;;;;;;;;;;4906662;29;20227;-86
2023/09/10 04:07:00;;;;;;;19.00;16.70;;;;;;;;;;4917378;29;20196;-86
2023/09/10 04:10:06;;;;;;;24.90;18.27;;;;;;;;;;4906854;29;20192;-86
2023/09/10 04:13:10;;;;;;;18.47;16.67;;;;;;;;;;4906317;29;20231;-86
2023/09/10 04:16:14;;;;;;;22.00;17.90;;;;;;;;;;4917365;29;20184;-86
2023/09/10 04:19:18;;;;;;;18.53;16.47;;;;;;;;;;4917564;29;20196;-86
2023/09/10 04:22:23;;;;;;;19.00;17.03;;;;;;;;;;4906286;29;20227;-86
2023/09/10 04:25:27;;;;;;;20.37;17.47;;;;;;;;;;4906637;29;20223;-86
2023/09/10 04:28:31;;;;;;;18.70;16.67;;;;;;;;;;4895943;29;20192;-86
2023/09/10 04:31:39;;;;;;;18.43;16.60;;;;;;;;;;4906962;29;20191;-86
2023/09/10 04:34:43;;;;;;;32.50;16.00;;;;;;;;;;4906714;29;20192;-86
2023/09/10 04:37:48;;;;;;;24.60;16.00;;;;;;;;;;4906435;29;20195;-86
2023/09/10 04:40:52;;;;;;;79.63;18.90;;;;;;;;;;4906633;29;20196;-86
2023/09/10 04:43:56;;;;;;;51.07;17.03;;;;;;;;;;4917054;29;20227;-86
2023/09/10 04:47:00;;;;;;;38.30;15.83;;;;;;;;;;4917504;29;20196;-86
2023/09/10 04:50:06;;;;;;;33.93;17.60;;;;;;;;;;4906916;29;20192;-86
2023/09/10 04:53:11;;;;;;;24.87;16.70;;;;;;;;;;4906351;29;20729;-86
2023/09/10 04:56:16;;;;;;;23.10;15.10;;;;;;;;;;4916563;29;20188;-86
2023/09/10 04:59:20;;;;;;;18.53;16.07;;;;;;;;;;4906516;29;20192;-86
2023/09/10 05:02:24;;;;;;;20.00;15.73;;;;;;;;;;4906311;29;20247;-86
2023/09/10 05:05:28;;;;;;;22.03;16.73;;;;;;;;;;4906813;29;20216;-85
2023/09/10 05:08:32;;;;;;;20.40;16.33;;;;;;;;;;4918224;29;20192;-86
2023/09/10 05:11:37;;;;;;;20.07;17.47;;;;;;;;;;4917541;29;20216;-86
2023/09/10 05:14:41;;;;;;;19.53;17.43;;;;;;;;;;4906265;29;20223;-86
2023/09/10 05:17:45;;;;;;;21.47;18.40;;;;;;;;;;4896306;29;20196;-86
2023/09/10 05:20:50;;;;;;;18.57;16.67;;;;;;;;;;4917077;29;20200;-86
2023/09/10 05:23:55;;;;;;;20.37;16.90;;;;;;;;;;4917299;29;20224;-86
2023/09/10 05:26:59;;;;;;;22.23;17.67;;;;;;;;;;4906425;29;20184;-87
2023/09/10 05:30:04;;;;;;;27.97;17.93;;;;;;;;;;4895751;29;20188;-86
2023/09/10 05:33:08;;;;;;;25.80;16.83;;;;;;;;;;4917812;29;20232;-86
2023/09/10 05:36:12;;;;;;;23.73;17.87;;;;;;;;;;4905945;29;20567;-86
2023/09/10 05:39:16;;;;;;;26.57;17.90;;;;;;;;;;4905563;29;20203;-86
2023/09/10 05:42:20;;;;;;;25.27;17.13;;;;;;;;;;4896822;29;20231;-82
2023/09/10 05:45:24;;;;;;;23.40;16.47;;;;;;;;;;4918604;29;20224;-82
2023/09/10 05:48:27;;;;;;;21.40;16.83;;;;;;;;;;4918752;29;20204;-82
2023/09/10 05:51:32;;;;;;;22.47;17.77;;;;;;;;;;4919241;29;20192;-82
2023/09/10 05:54:36;;;;;;;18.67;15.93;;;;;;;;;;4918448;29;20187;-82
2023/09/10 05:57:41;;;;;;;39.73;24.80;;;;;;;;;;4918512;29;20196;-83
2023/09/10 06:00:45;;;;;;;29.13;20.30;;;;;;;;;;4918845;29;20196;-83
2023/09/10 06:03:49;;;;;;;27.77;20.37;;;;;;;;;;4907110;29;20240;-83
2023/09/10 06:06:53;;;;;;;31.33;22.87;;;;;;;;;;4918149;29;20216;-82
2023/09/10 06:09:57;;;;;;;28.93;22.57;;;;;;;;;;4921321;29;20661;-82
2023/09/10 06:13:02;;;;;;;27.07;22.87;;;;;;;;;;4920801;29;20232;-82
2023/09/10 06:16:05;;;;;;;27.80;21.37;;;;;;;;;;4921540;29;20188;-83
2023/09/10 06:19:10;;;;;;;26.17;20.87;;;;;;;;;;4921925;29;20188;-81
2023/09/10 06:22:14;;;;;;;38.37;22.00;;;;;;;;;;4909907;29;20192;-81
2023/09/10 06:25:19;;;;;;;30.03;21.50;;;;;;;;;;4921474;29;20216;-82
2023/09/10 06:28:24;;;;;;;28.13;22.97;;;;;;;;;;4910229;29;20661;-82
2023/09/10 06:31:28;;;;;;;28.93;23.07;;;;;;;;;;4921140;29;20197;-81
2023/09/10 06:34:33;;;;;;;27.03;20.80;;;;;;;;;;4910058;29;20258;-81
2023/09/10 06:37:38;;;;;;;24.20;21.30;;;;;;;;;;4921211;29;20188;-82
2023/09/10 06:40:43;;;;;;;28.47;20.93;;;;;;;;;;4920870;29;20196;-82
2023/09/10 06:43:47;;;;;;;36.57;19.80;;;;;;;;;;4920084;29;20228;-82
2023/09/10 06:46:54;;;;;;;22.73;18.63;;;;;;;;;;4920537;29;20223;-82
2023/09/10 06:49:58;;;;;;;18.83;16.73;;;;;;;;;;4921246;29;20207;-82
2023/09/10 06:53:03;;;;;;;27.20;17.70;;;;;;;;;;4921393;29;20231;-81
2023/09/10 06:56:07;;;;;;;29.83;17.70;;;;;;;;;;4921019;29;20183;-81
2023/09/10 06:59:11;;;;;;;23.00;18.30;;;;;;;;;;4921244;29;20192;-81
2023/09/10 07:02:15;;;;;;;22.60;18.10;;;;;;;;;;4920819;29;20196;-82
2023/09/10 07:05:19;;;;;;;20.87;18.57;;;;;;;;;;4920261;29;20227;-82
2023/09/10 07:08:23;;;;;;;21.00;18.47;;;;;;;;;;4920671;29;20653;-82
2023/09/10 07:11:27;;;;;;;20.57;18.37;;;;;;;;;;4921284;29;20546;-82
2023/09/10 07:14:32;;;;;;;31.40;20.03;;;;;;;;;;4920507;29;20219;-82
2023/09/10 07:17:37;;;;;;;22.70;20.37;;;;;;;;;;4921684;29;20185;-82
2023/09/10 07:20:41;;;;;;;25.77;23.07;;;;;;;;;;4920043;29;20574;-85
2023/09/10 07:23:45;;;;;;;27.97;25.07;;;;;;;;;;4920344;29;20235;-82
2023/09/10 07:26:49;;;;;;;29.47;23.40;;;;;;;;;;4919010;29;20220;-82
2023/09/10 07:29:53;;;;;;;23.43;20.33;;;;;;;;;;4919677;29;20191;-82
2023/09/10 07:32:58;;;;;;;25.83;23.10;;;;;;;;;;4921458;29;20224;-82
2023/09/10 07:36:02;;;;;;;28.77;23.13;;;;;;;;;;4920539;29;20189;-82
2023/09/10 07:39:06;;;;;;;36.10;22.00;;;;;;;;;;4921278;29;20214;-83
2023/09/10 07:42:10;;;;;;;28.43;21.83;;;;;;;;;;4908542;29;20188;-82
2023/09/10 07:45:14;;;;;;;26.40;23.80;;;;;;;;;;4920213;29;20194;-82
2023/09/10 07:48:18;;;;;;;28.10;23.73;;;;;;;;;;4919062;29;20560;-82
2023/09/10 07:51:22;;;;;;;26.03;23.10;;;;;;;;;;4918599;29;20194;-82
2023/09/10 07:54:26;;;;;;;23.77;21.27;;;;;;;;;;4920023;29;20195;-82
2023/09/10 07:57:30;;;;;;;23.60;21.30;;;;;;;;;;4920216;29;20198;-82
2023/09/10 08:00:36;;;;;;;66.60;24.33;;;;;;;;;;4918903;29;20213;-82
2023/09/10 08:03:42;;;;;;;26.50;22.43;;;;;;;;;;4919988;29;20223;-82
2023/09/10 08:06:46;;;;;;;29.87;22.33;;;;;;;;;;4919992;29;20222;-82
2023/09/10 08:09:50;;;;;;;28.53;25.23;;;;;;;;;;4920219;29;20199;-82
2023/09/10 08:12:54;;;;;;;28.53;23.90;;;;;;;;;;4920018;29;20571;-82
2023/09/10 08:15:58;;;;;;;23.70;21.20;;;;;;;;;;4920277;29;20199;-82
2023/09/10 08:19:03;;;;;;;21.77;19.57;;;;;;;;;;4919763;29;20208;-82
2023/09/10 08:22:07;;;;;;;25.40;22.20;;;;;;;;;;4919686;29;20197;-82
2023/09/10 08:25:11;;;;;;;37.00;19.98;;;;;;;;;;4919817;29;20199;-82
2023/09/10 08:28:15;;;;;;;22.50;20.23;;;;;;;;;;4919024;29;20189;-83
2023/09/10 08:31:20;;;;;;;21.20;18.98;;;;;;;;;;4919178;29;20194;-82
2023/09/10 08:34:23;;;;;;;27.40;20.50;;;;;;;;;;4918599;29;20230;-83
2023/09/10 08:37:28;;;;;;;23.20;19.38;;;;;;;;;;4920570;29;20567;-82
2023/09/10 08:40:32;;;;;;;22.30;19.92;;;;;;;;;;4919743;29;20203;-83
2023/09/10 08:43:48;;;;;;;21.20;18.35;;;;;;;;;;4919513;29;20596;-83
2023/09/10 08:46:56;;;;;;;34.40;17.20;;;;;;;;;;4918470;29;20220;-83
2023/09/10 08:50:07;;;;;;;20.65;17.27;;;;;;;;;;4918616;29;20191;-83
2023/09/10 08:53:14;;;;;;;20.08;17.45;;;;;;;;;;4918918;29;20227;-83
2023/09/10 08:56:18;;;;;;;17.98;16.27;;;;;;;;;;4919259;29;20184;-79
2023/09/10 08:59:23;;;;;;;17.15;15.48;;;;;;;;;;4919593;29;20196;-79
2023/09/10 09:02:27;;;;;;;23.05;17.02;;;;;;;;;;4919810;29;20602;-79
2023/09/10 09:05:34;;;;;;;17.77;14.15;;;;;;;;;;4919231;29;20196;-83
2023/09/10 09:08:40;;;;;;;15.52;14.00;;;;;;;;;;4918920;29;20682;-83
2023/09/10 09:11:45;;;;;;;16.27;14.65;;;;;;;;;;4908662;29;20200;-83
2023/09/10 09:14:50;;;;;;;24.50;15.75;;;;;;;;;;4919804;29;20216;-84
2023/09/10 09:17:55;;;;;;;15.90;14.45;;;;;;;;;;4919934;29;20562;-83
2023/09/10 09:21:05;;;;;;;15.80;14.25;;;;;;;;;;4918959;29;20192;-83
2023/09/10 09:24:12;;;;;;;21.13;11.70;;;;;;;;;;4920387;29;20224;-83
2023/09/10 09:27:17;;;;;;;10.82;9.55;;;;;;;;;;4920433;29;20584;-83
2023/09/10 09:30:21;;;;;;;10.23;9.32;;;;;;;;;;4919666;29;20193;-83
2023/09/10 09:33:25;;;;;;;16.23;9.45;;;;;;;;;;4919328;29;20224;-83
2023/09/10 09:36:32;;;;;;;12.32;10.13;;;;;;;;;;4920787;29;20185;-83
2023/09/10 09:39:38;;;;;;;9.70;8.80;;;;;;;;;;4920889;29;20220;-83
2023/09/10 09:42:42;;;;;;;8.02;7.22;;;;;;;;;;4920787;29;20217;-83
2023/09/10 09:45:46;;;;;;;11.07;10.18;;;;;;;;;;4923991;29;20181;-84
2023/09/10 09:48:50;;;;;;;10.63;9.13;;;;;;;;;;4924544;29;20200;-84
2023/09/10 09:51:54;;;;;;;128.93;13.85;;;;;;;;;;4923666;29;20185;-83
2023/09/10 09:54:58;;;;;;;44.03;9.57;;;;;;;;;;4923539;29;20192;-83
2023/09/10 09:58:04;;;;;;;11.82;8.57;;;;;;;;;;4923358;29;20635;-83
2023/09/10 10:01:08;;;;;;;10.63;7.72;;;;;;;;;;4923416;29;20185;-83
2023/09/10 10:04:15;;;;;;;9.13;8.32;;;;;;;;;;4922983;29;20710;-84
2023/09/10 10:07:22;;;;;;;9.30;8.00;;;;;;;;;;4921622;29;20679;-83
2023/09/10 10:10:26;;;;;;;8.55;7.78;;;;;;;;;;4911535;29;20185;-84
2023/09/10 10:13:31;;;;;;;10.63;7.78;;;;;;;;;;4922370;29;20229;-84
2023/09/10 10:16:37;;;;;;;7.43;6.72;;;;;;;;;;4925257;29;20178;-83
2023/09/10 10:19:42;;;;;;;9.10;7.00;;;;;;;;;;4921642;29;20185;-81
2023/09/10 10:22:46;;;;;;;8.95;8.02;;;;;;;;;;4921734;29;20225;-81
2023/09/10 10:25:52;;;;;;;7.70;6.93;;;;;;;;;;4921224;29;20181;-81
2023/09/10 10:28:57;;;;;;;7.35;6.75;;;;;;;;;;4921671;29;20186;-81
2023/09/10 10:32:10;;;;;;;6.68;6.07;;;;;;;;;;4921342;29;20193;-82
2023/09/10 10:35:14;;;;;;;8.02;7.00;;;;;;;;;;4922549;29;20527;-82
2023/09/10 10:38:22;;;;;;;7.55;6.78;;;;;;;;;;4910941;29;20181;-81
2023/09/10 10:41:28;;;;;;;6.57;5.97;;;;;;;;;;4911001;29;20190;-81
2023/09/10 10:44:37;;;;;;;8.27;5.82;;;;;;;;;;4923512;29;20189;-81
2023/09/10 10:47:42;;;;;;;6.40;5.80;;;;;;;;;;4923728;29;20217;-82
2023/09/10 10:50:51;;;;;;;6.60;5.88;;;;;;;;;;4923871;29;20189;-81
2023/09/10 10:53:55;;;;;;;6.93;6.32;;;;;;;;;;4923362;29;20225;-81
2023/09/10 10:57:00;;;;;;;6.80;6.15;;;;;;;;;;4922167;29;20181;-81
2023/09/10 11:00:10;;;;;;;10.10;6.63;;;;;;;;;;4922147;29;20198;-81
2023/09/10 11:03:16;;;;;;;9.45;6.97;;;;;;;;;;4921083;29;20722;-81
2023/09/10 11:06:20;;;;;;;8.30;6.47;;;;;;;;;;4921696;29;20177;-81
2023/09/10 11:09:37;;;;;;;14.50;8.43;;;;;;;;;;4921134;29;20537;-80
2023/09/10 11:13:05;;;;;;;6.55;5.95;;;;;;;;;;4920504;29;20221;-81
2023/09/10 11:16:09;;;;;;;7.00;6.30;;;;;;;;;;4919799;29;20181;-81
2023/09/10 11:19:49;;;;;;;9.50;5.93;;;;;;;;;;4921361;29;20185;-81
2023/09/10 11:23:07;;;;;;;6.72;6.03;;;;;;;;;;4899959;29;20221;-81
2023/09/10 11:26:14;;;;;;;15.52;6.53;;;;;;;;;;4920472;29;20186;-81
2023/09/10 11:29:19;;;;;;;34.25;7.00;;;;;;;;;;4920444;29;20186;-81
2023/09/10 11:32:23;;;;;;;21.98;6.45;;;;;;;;;;4919185;29;20217;-81
2023/09/10 11:35:27;;;;;;;11.18;5.53;;;;;;;;;;4919466;29;20634;-81
2023/09/10 11:38:31;;;;;;;7.57;5.68;;;;;;;;;;4920389;29;20624;-81
2023/09/10 11:41:35;;;;;;;17.05;6.93;;;;;;;;;;4919683;29;20184;-81
2023/09/10 11:44:39;;;;;;;10.40;6.28;;;;;;;;;;4920206;29;20185;-81
2023/09/10 11:47:49;;;;;;;48.33;8.23;;;;;;;;;;4919804;29;20213;-83
2023/09/10 11:50:55;;;;;;;14.57;6.65;;;;;;;;;;4908754;29;20185;-83
2023/09/10 11:53:59;;;;;;;21.75;7.53;;;;;;;;;;4921748;29;20217;-83
2023/09/10 11:57:04;;;;;;;9.45;6.05;;;;;;;;;;4910943;29;20181;-83
2023/09/10 12:00:11;;;;;;;14.32;6.45;;;;;;;;;;4923590;29;20185;-83
2023/09/10 12:03:15;;;;;;;8.05;6.38;;;;;;;;;;4920448;29;20229;-83
2023/09/10 12:06:19;;;;;;;7.27;6.10;;;;;;;;;;4919767;29;20538;-83
2023/09/10 12:09:24;;;;;;;18.33;6.28;;;;;;;;;;4920651;29;20524;-83
2023/09/10 12:12:33;;;;;;;14.57;6.25;;;;;;;;;;4919209;29;20224;-81
2023/09/10 12:15:38;;;;;;;102.18;10.88;;;;;;;;;;4919364;29;20185;-81
2023/09/10 12:18:42;;;;;;;88.22;10.48;;;;;;;;;;4919971;29;20647;-81
2023/09/10 12:21:46;;;;;;;14.93;6.03;;;;;;;;;;4920555;29;20666;-81
2023/09/10 12:24:50;;;;;;;32.08;7.72;;;;;;;;;;4919938;29;20189;-81
2023/09/10 12:27:55;;;;;;;11.82;6.72;;;;;;;;;;4919556;29;20217;-81
2023/09/10 12:30:59;;;;;;;6.97;5.85;;;;;;;;;;4919019;29;20185;-81
2023/09/10 12:34:04;;;;;;;8.85;6.75;;;;;;;;;;4919147;29;20221;-81
2023/09/10 12:37:13;;;;;;;7.78;6.90;;;;;;;;;;4918806;29;20181;-81
2023/09/10 12:40:19;;;;;;;10.27;6.72;;;;;;;;;;4920108;29;20186;-81
2023/09/10 12:43:23;;;;;;;9.27;6.47;;;;;;;;;;4919509;29;20225;-81
2023/09/10 12:46:29;;;;;;;20.63;6.68;;;;;;;;;;4919276;29;20181;-81
2023/09/10 12:49:33;;;;;;;8.13;5.95;;;;;;;;;;4919012;29;20174;-81
2023/09/10 12:52:37;;;;;;;8.50;6.28;;;;;;;;;;4917983;29;20570;-81
2023/09/10 12:55:42;;;;;;;7.03;6.20;;;;;;;;;;4909326;29;20185;-81
2023/09/10 12:58:48;;;;;;;7.70;6.05;;;;;;;;;;4910588;29;20185;-82
2023/09/10 13:01:52;;;;;;;10.68;6.43;;;;;;;;;;4921323;29;20184;-82
2023/09/10 13:04:56;;;;;;;6.70;6.10;;;;;;;;;;4919332;29;20197;-81
2023/09/10 13:08:00;;;;;;;12.15;6.55;;;;;;;;;;4920458;29;20217;-81
2023/09/10 13:11:04;;;;;;;21.70;7.53;;;;;;;;;;4919187;29;20177;-82
2023/09/10 13:14:08;;;;;;;13.40;5.90;;;;;;;;;;4920350;29;20224;-82
2023/09/10 13:17:13;;;;;;;8.82;7.18;;;;;;;;;;4919788;29;20177;-81
2023/09/10 13:20:18;;;;;;;12.40;6.80;;;;;;;;;;4923192;29;20189;-84
2023/09/10 13:23:22;;;;;;;43.88;8.27;;;;;;;;;;4921411;29;20221;-83
2023/09/10 13:26:26;;;;;;;10.98;6.65;;;;;;;;;;4922308;29;20189;-85
2023/09/10 13:29:30;;;;;;;8.75;6.15;;;;;;;;;;4920806;29;20525;-83
2023/09/10 13:32:34;;;;;;;15.82;7.38;;;;;;;;;;4921102;29;20224;-83
2023/09/10 13:35:39;;;;;;;24.63;7.68;;;;;;;;;;4921011;29;20185;-83
2023/09/10 13:38:43;;;;;;;7.70;5.95;;;;;;;;;;4920357;29;20174;-84
2023/09/10 13:41:47;;;;;;;15.60;7.10;;;;;;;;;;4920870;29;20186;-83
2023/09/10 13:44:51;;;;;;;89.00;10.68;;;;;;;;;;4921200;29;20639;-83
2023/09/10 13:47:56;;;;;;;8.50;6.57;;;;;;;;;;4920098;29;20228;-83
2023/09/10 13:51:00;;;;;;;8.93;5.78;;;;;;;;;;4920813;29;20185;-83
2023/09/10 13:54:05;;;;;;;6.95;5.68;;;;;;;;;;4920819;29;20216;-83
2023/09/10 13:57:10;;;;;;;7.57;6.38;;;;;;;;;;4920553;29;20177;-83
2023/09/10 14:00:14;;;;;;;14.45;7.18;;;;;;;;;;4921359;29;20177;-83
2023/09/10 14:03:25;;;;;;;8.80;6.53;;;;;;;;;;4920424;29;20216;-83
2023/09/10 14:06:30;;;;;;;24.85;7.78;;;;;;;;;;4920237;29;20189;-83
2023/09/10 14:09:34;;;;;;;9.40;6.32;;;;;;;;;;4919562;29;20185;-83
2023/09/10 14:12:38;;;;;;;7.47;6.15;;;;;;;;;;4920700;29;20216;-83
2023/09/10 14:15:45;;;;;;;8.80;7.03;;;;;;;;;;4918003;29;20529;-83
2023/09/10 14:18:50;;;;;;;10.10;6.38;;;;;;;;;;4918439;29;20545;-83
2023/09/10 14:21:54;;;;;;;12.23;6.47;;;;;;;;;;4919191;29;20185;-83
2023/09/10 14:24:58;;;;;;;15.00;6.45;;;;;;;;;;4919137;29;20185;-83
2023/09/10 14:28:02;;;;;;;7.07;6.13;;;;;;;;;;4918595;29;20674;-83
2023/09/10 14:31:06;;;;;;;7.07;6.38;;;;;;;;;;4919126;29;20181;-83
2023/09/10 14:34:10;;;;;;;8.57;6.03;;;;;;;;;;4917954;29;20221;-83
2023/09/10 14:37:14;;;;;;;7.30;6.60;;;;;;;;;;4907037;29;20178;-84
2023/09/10 14:40:19;;;;;;;92.43;11.38;;;;;;;;;;4907894;29;20186;-83
2023/09/10 14:43:23;;;;;;;38.70;8.63;;;;;;;;;;4920003;29;20223;-83
2023/09/10 14:46:27;;;;;;;10.98;6.88;;;;;;;;;;4919284;29;20185;-83
2023/09/10 14:49:31;;;;;;;8.60;6.60;;;;;;;;;;4906630;29;20212;-83
2023/09/10 14:52:35;;;;;;;17.92;7.50;;;;;;;;;;4918202;29;20225;-83
2023/09/10 14:55:40;;;;;;;21.50;7.40;;;;;;;;;;4918011;29;20534;-83
2023/09/10 14:58:44;;;;;;;16.88;7.22;;;;;;;;;;4917843;29;20173;-83
2023/09/10 15:01:48;;;;;;;9.52;7.43;;;;;;;;;;4918559;29;20185;-83
2023/09/10 15:04:52;;;;;;;52.92;9.23;;;;;;;;;;4919006;29;20181;-84
2023/09/10 15:07:57;;;;;;;10.07;6.78;;;;;;;;;;4918239;29;20565;-85
2023/09/10 15:11:02;;;;;;;32.50;8.85;;;;;;;;;;4918854;29;20533;-85
2023/09/10 15:14:06;;;;;;;27.13;8.00;;;;;;;;;;4881588;29;1086362;-85
2023/09/10 15:17:10;;;;;;;50.80;9.82;;;;;;;;;;4919241;29;20188;-85
2023/09/10 15:20:14;;;;;;;17.98;7.65;;;;;;;;;;4919487;29;20267;-85
2023/09/10 15:23:18;;;;;;;15.75;7.25;;;;;;;;;;4907621;29;20225;-85
2023/09/10 15:26:23;;;;;;;9.30;6.97;;;;;;;;;;4919572;29;20543;-85
2023/09/10 15:29:28;;;;;;;10.23;7.20;;;;;;;;;;4918282;29;20209;-85
2023/09/10 15:32:32;;;;;;;9.68;7.45;;;;;;;;;;4918428;29;20217;-85
2023/09/10 15:35:36;;;;;;;39.28;9.20;;;;;;;;;;4918480;29;20196;-85
2023/09/10 15:38:41;;;;;;;400.52;32.35;;;;;;;;;;4918805;29;20181;-85
2023/09/10 15:41:46;;;;;;;42.13;9.30;;;;;;;;;;4918996;29;20564;-85
2023/09/10 15:44:51;;;;;;;11.40;7.43;;;;;;;;;;4919374;29;20248;-85
2023/09/10 15:47:55;;;;;;;9.77;7.32;;;;;;;;;;4919040;29;20213;-85
2023/09/10 15:50:59;;;;;;;28.70;8.38;;;;;;;;;;4918245;29;20181;-85
2023/09/10 15:54:04;;;;;;;13.55;7.72;;;;;;;;;;4919141;29;20217;-85
2023/09/10 15:57:08;;;;;;;27.00;8.10;;;;;;;;;;4918399;29;20181;-85
2023/09/10 16:00:12;;;;;;;27.48;9.38;;;;;;;;;;4918129;29;20652;-85
2023/09/10 16:03:19;;;;;;;26.15;8.55;;;;;;;;;;4918664;29;20575;-85
2023/09/10 16:06:23;;;;;;;14.60;8.60;;;;;;;;;;4918201;29;20188;-85
2023/09/10 16:09:27;;;;;;;10.75;7.32;;;;;;;;;;4919043;29;20207;-85
2023/09/10 16:12:32;;;;;;;13.35;7.28;;;;;;;;;;4919159;29;20221;-85
2023/09/10 16:15:37;;;;;;;11.55;7.38;;;;;;;;;;4918023;29;20189;-85
2023/09/10 16:18:40;;;;;;;9.95;7.70;;;;;;;;;;4919110;29;20184;-85
2023/09/10 16:21:44;;;;;;;55.22;9.68;;;;;;;;;;4907648;29;20192;-85
2023/09/10 16:24:49;;;;;;;10.55;6.88;;;;;;;;;;4919564;29;20186;-85
2023/09/10 16:27:54;;;;;;;12.32;7.43;;;;;;;;;;4919234;29;20537;-85
2023/09/10 16:30:58;;;;;;;9.32;7.40;;;;;;;;;;4918971;29;20179;-85
2023/09/10 16:34:02;;;;;;;18.85;7.80;;;;;;;;;;4918448;29;20224;-85
2023/09/10 16:37:07;;;;;;;17.77;7.38;;;;;;;;;;4918551;29;20195;-85
2023/09/10 16:40:12;;;;;;;37.13;9.40;;;;;;;;;;4919372;29;20188;-85
2023/09/10 16:43:16;;;;;;;27.42;9.07;;;;;;;;;;4919085;29;20699;-85
2023/09/10 16:46:20;;;;;;;16.05;8.80;;;;;;;;;;4919270;29;20181;-85
2023/09/10 16:49:25;;;;;;;46.83;10.20;;;;;;;;;;4918910;29;20211;-86
2023/09/10 16:52:29;;;;;;;19.40;8.55;;;;;;;;;;4919023;29;20231;-85
2023/09/10 16:55:33;;;;;;;17.88;8.60;;;;;;;;;;4918353;29;20189;-85
2023/09/10 16:58:37;;;;;;;22.70;9.18;;;;;;;;;;4919759;29;20188;-85
2023/09/10 17:01:41;;;;;;;20.73;7.97;;;;;;;;;;4918998;29;20191;-85
2023/09/10 17:04:45;;;;;;;39.08;8.98;;;;;;;;;;4918103;29;20191;-85
2023/09/10 17:07:49;;;;;;;39.78;9.45;;;;;;;;;;4918040;29;20185;-86
2023/09/10 17:10:53;;;;;;;38.47;9.10;;;;;;;;;;4919381;29;20191;-85
2023/09/10 17:13:58;;;;;;;19.50;8.75;;;;;;;;;;4918995;29;20233;-85
2023/09/10 17:17:04;;;;;;;26.05;8.57;;;;;;;;;;4919278;29;20637;-85
2023/09/10 17:20:09;;;;;;;14.32;8.57;;;;;;;;;;4918961;29;20178;-85
2023/09/10 17:23:13;;;;;;;13.60;8.82;;;;;;;;;;4919273;29;20222;-83
2023/09/10 17:26:18;;;;;;;11.48;7.97;;;;;;;;;;4920646;29;20537;-83
2023/09/10 17:29:23;;;;;;;10.85;8.82;;;;;;;;;;4922400;29;20208;-83
2023/09/10 17:32:28;;;;;;;11.95;9.15;;;;;;;;;;4916922;29;20212;-86
2023/09/10 17:35:32;;;;;;;9.82;8.82;;;;;;;;;;4916004;29;20187;-86
2023/09/10 17:38:36;;;;;;;10.82;9.10;;;;;;;;;;4915900;29;20178;-86
2023/09/10 17:41:40;;;;;;;12.82;9.10;;;;;;;;;;4898035;29;20185;-86
2023/09/10 17:44:50;;;;;;;10.77;9.50;;;;;;;;;;4887256;29;20187;-87
2023/09/10 17:47:54;;;;;;;10.40;8.93;;;;;;;;;;4898202;29;20183;-86
2023/09/10 17:51:04;;;;;;;14.87;9.77;;;;;;;;;;4899336;29;20179;-86
2023/09/10 17:54:08;;;;;;;13.20;9.40;;;;;;;;;;4897470;29;20562;-85
2023/09/10 17:57:12;;;;;;;11.67;10.57;;;;;;;;;;4886631;29;20178;-87
2023/09/10 18:00:17;;;;;;;13.60;10.90;;;;;;;;;;4898546;29;20194;-86
2023/09/10 18:03:21;;;;;;;11.07;9.97;;;;;;;;;;4886913;29;20234;-86
2023/09/10 18:06:25;;;;;;;11.70;10.50;;;;;;;;;;4901351;29;20262;-86